createdAt,value
2023-05-20T00:00:28.802Z,12.22
2023-05-20T00:02:00.608Z,12.21
2023-05-20T00:03:32.485Z,12.21
2023-05-20T00:05:04.645Z,12.20
2023-05-20T00:06:36.827Z,12.19
2023-05-20T00:08:09.727Z,12.18
2023-05-20T00:09:41.545Z,12.17
2023-05-20T00:11:13.391Z,12.16
2023-05-20T00:12:45.207Z,12.14
2023-05-20T00:14:17.033Z,12.15
2023-05-20T00:15:48.834Z,12.14
2023-05-20T00:17:20.689Z,12.12
2023-05-20T00:18:52.513Z,12.11
2023-05-20T00:20:24.754Z,12.13
2023-05-20T00:21:58.183Z,12.12
2023-05-20T00:23:30.217Z,12.10
2023-05-20T00:25:02.266Z,12.07
2023-05-20T00:26:34.147Z,12.07
2023-05-20T00:28:06.685Z,12.06
2023-05-20T00:29:39.403Z,12.07
2023-05-20T00:31:11.312Z,12.04
2023-05-20T00:32:43.225Z,12.03
2023-05-20T00:34:15.508Z,12.00
2023-05-20T00:35:47.356Z,11.98
2023-05-20T00:37:19.184Z,11.94
2023-05-20T00:38:51.548Z,11.93
2023-05-20T00:40:24.979Z,11.90
2023-05-20T00:42:00.637Z,11.88
2023-05-20T00:43:32.439Z,11.85
2023-05-20T00:45:04.663Z,11.81
2023-05-20T00:46:37.109Z,11.77
2023-05-20T00:48:09.938Z,11.74
2023-05-20T00:49:42.561Z,11.71
2023-05-20T00:51:14.832Z,11.67
2023-05-20T00:52:48.450Z,11.65
2023-05-20T00:54:21.189Z,11.61
2023-05-20T00:55:53.017Z,11.57
2023-05-20T00:57:25.234Z,11.56
2023-05-20T00:58:58.051Z,11.53
2023-05-20T01:00:29.861Z,11.52
2023-05-20T01:02:06.033Z,11.51
2023-05-20T01:03:38.322Z,11.50
2023-05-20T01:05:10.383Z,11.51
2023-05-20T01:06:42.262Z,11.51
2023-05-20T01:08:14.294Z,11.49
2023-05-20T01:09:46.410Z,11.47
2023-05-20T01:11:26.356Z,11.43
2023-05-20T01:13:01.911Z,11.43
2023-05-20T01:14:39.726Z,11.42
2023-05-20T01:16:12.149Z,11.41
2023-05-20T01:17:47.269Z,11.41
2023-05-20T01:19:36.529Z,11.37
2023-05-20T01:21:12.201Z,11.39
2023-05-20T01:22:53.882Z,11.38
2023-05-20T01:24:25.797Z,11.37
2023-05-20T01:25:57.725Z,11.36
2023-05-20T01:27:30.519Z,11.35
2023-05-20T01:29:04.717Z,11.33
2023-05-20T01:30:44.585Z,11.32
2023-05-20T01:32:23.307Z,11.31
2023-05-20T01:33:58.675Z,11.31
2023-05-20T01:35:30.655Z,11.28
2023-05-20T01:37:04.765Z,11.27
2023-05-20T01:38:38.250Z,11.25
2023-05-20T01:40:14.284Z,11.23
2023-05-20T01:41:47.769Z,11.21
2023-05-20T01:43:21.080Z,11.18
2023-05-20T01:44:52.900Z,11.16
2023-05-20T01:46:24.796Z,11.12
2023-05-20T01:47:57.645Z,11.10
2023-05-20T01:49:30.095Z,11.08
2023-05-20T01:51:02.005Z,11.06
2023-05-20T01:52:33.960Z,11.04
2023-05-20T01:54:05.940Z,11.03
2023-05-20T01:55:37.947Z,11.03
2023-05-20T01:57:10.069Z,11.03
2023-05-20T01:58:41.982Z,11.03
2023-05-20T02:00:14.264Z,11.03
2023-05-20T02:01:46.419Z,11.02
2023-05-20T02:03:20.887Z,11.04
2023-05-20T02:04:54.450Z,11.03
2023-05-20T02:06:26.317Z,11.03
2023-05-20T02:07:59.912Z,11.05
2023-05-20T02:09:31.718Z,11.05
2023-05-20T02:11:03.530Z,11.07
2023-05-20T02:12:35.360Z,11.06
2023-05-20T02:14:07.286Z,11.07
2023-05-20T02:15:42.456Z,11.07
2023-05-20T02:17:16.739Z,11.08
2023-05-20T02:18:48.981Z,11.08
2023-05-20T02:20:22.472Z,11.10
2023-05-20T02:21:54.278Z,11.10
2023-05-20T02:23:26.340Z,11.10
2023-05-20T02:24:58.134Z,11.10
2023-05-20T02:26:30.194Z,11.09
2023-05-20T02:28:05.819Z,11.09
2023-05-20T02:29:37.695Z,11.09
2023-05-20T02:31:09.516Z,11.10
2023-05-20T02:32:41.698Z,11.08
2023-05-20T02:34:14.298Z,11.08
2023-05-20T02:35:46.288Z,11.11
2023-05-20T02:37:19.452Z,11.13
2023-05-20T02:38:51.434Z,11.11
2023-05-20T02:40:23.233Z,11.09
2023-05-20T02:41:55.028Z,11.08
2023-05-20T02:43:26.861Z,11.06
2023-05-20T02:44:59.086Z,11.06
2023-05-20T02:46:31.617Z,11.06
2023-05-20T02:48:04.907Z,11.05
2023-05-20T02:49:37.317Z,11.04
2023-05-20T02:51:09.186Z,11.04
2023-05-20T02:52:42.791Z,11.03
2023-05-20T02:54:14.854Z,11.01
2023-05-20T02:55:50.117Z,11.01
2023-05-20T02:57:22.868Z,10.98
2023-05-20T02:58:54.953Z,10.96
2023-05-20T03:00:28.882Z,10.94
2023-05-20T03:02:00.761Z,10.92
2023-05-20T03:03:33.635Z,10.89
2023-05-20T03:05:05.841Z,10.85
2023-05-20T03:06:38.381Z,10.84
2023-05-20T03:08:11.076Z,10.82
2023-05-20T03:09:42.982Z,10.77
2023-05-20T03:11:14.823Z,10.75
2023-05-20T03:12:46.868Z,10.72
2023-05-20T03:14:18.671Z,10.69
2023-05-20T03:15:50.703Z,10.66
2023-05-20T03:17:22.984Z,10.63
2023-05-20T03:18:55.044Z,10.60
2023-05-20T03:20:29.278Z,10.58
2023-05-20T03:22:01.639Z,10.56
2023-05-20T03:23:33.478Z,10.54
2023-05-20T03:25:06.349Z,10.52
2023-05-20T03:26:43.259Z,10.48
2023-05-20T03:28:15.228Z,10.46
2023-05-20T03:29:48.483Z,10.45
2023-05-20T03:31:21.260Z,10.46
2023-05-20T03:32:57.951Z,10.43
2023-05-20T03:34:30.533Z,10.43
2023-05-20T03:36:02.615Z,10.45
2023-05-20T03:37:34.474Z,10.45
2023-05-20T03:39:06.323Z,10.45
2023-05-20T03:40:38.700Z,10.46
2023-05-20T03:42:11.004Z,10.47
2023-05-20T03:43:42.903Z,10.50
2023-05-20T03:45:15.718Z,10.52
2023-05-20T03:46:57.118Z,10.56
2023-05-20T03:48:29.085Z,10.60
2023-05-20T03:50:00.969Z,10.64
2023-05-20T03:51:34.617Z,10.68
2023-05-20T03:53:11.784Z,10.71
2023-05-20T03:54:46.037Z,10.75
2023-05-20T03:56:17.866Z,10.78
2023-05-20T03:57:49.777Z,10.82
2023-05-20T03:59:22.583Z,10.88
2023-05-20T04:00:54.420Z,10.93
2023-05-20T04:02:26.397Z,10.96
2023-05-20T04:03:58.419Z,11.00
2023-05-20T04:05:30.316Z,11.04
2023-05-20T04:07:05.152Z,11.07
2023-05-20T04:08:37.038Z,11.14
2023-05-20T04:10:09.633Z,11.18
2023-05-20T04:11:41.479Z,11.21
2023-05-20T04:13:13.403Z,11.25
2023-05-20T04:14:46.540Z,11.30
2023-05-20T04:16:18.503Z,11.33
2023-05-20T04:17:50.707Z,11.38
2023-05-20T04:19:24.461Z,11.39
2023-05-20T04:20:56.756Z,11.43
2023-05-20T04:22:28.744Z,11.46
2023-05-20T04:24:00.789Z,11.49
2023-05-20T04:25:33.470Z,11.53
2023-05-20T04:27:06.224Z,11.55
2023-05-20T04:28:39.156Z,11.57
2023-05-20T04:30:12.053Z,11.62
2023-05-20T04:31:47.280Z,11.64
2023-05-20T04:33:19.226Z,11.66
2023-05-20T04:34:51.284Z,11.69
2023-05-20T04:36:28.947Z,11.72
2023-05-20T04:38:02.297Z,11.76
2023-05-20T04:39:34.178Z,11.78
2023-05-20T04:41:07.331Z,11.81
2023-05-20T04:42:39.889Z,11.85
2023-05-20T04:44:11.728Z,11.86
2023-05-20T04:45:43.755Z,11.91
2023-05-20T04:47:17.407Z,11.95
2023-05-20T04:48:49.247Z,11.97
2023-05-20T04:50:22.086Z,12.01
2023-05-20T04:51:55.626Z,12.04
2023-05-20T04:53:27.472Z,12.06
2023-05-20T04:55:02.051Z,12.09
2023-05-20T04:56:34.003Z,12.11
2023-05-20T04:58:06.042Z,12.13
2023-05-20T04:59:38.015Z,12.16
2023-05-20T05:01:09.907Z,12.18
2023-05-20T05:02:42.330Z,12.21
2023-05-20T05:04:14.519Z,12.25
2023-05-20T05:05:46.432Z,12.27
2023-05-20T05:07:18.280Z,12.29
2023-05-20T05:08:50.132Z,12.34
2023-05-20T05:10:23.562Z,12.38
2023-05-20T05:11:55.664Z,12.42
2023-05-20T05:13:28.069Z,12.44
2023-05-20T05:15:00.499Z,12.48
2023-05-20T05:16:34.129Z,12.51
2023-05-20T05:18:06.115Z,12.55
2023-05-20T05:19:39.444Z,12.57
2023-05-20T05:21:11.840Z,12.62
2023-05-20T05:22:44.509Z,12.66
2023-05-20T05:24:16.549Z,12.66
2023-05-20T05:25:52.390Z,12.68
2023-05-20T05:27:24.332Z,12.69
2023-05-20T05:28:56.278Z,12.73
2023-05-20T05:30:28.399Z,12.76
2023-05-20T05:32:00.313Z,12.80
2023-05-20T05:33:32.303Z,12.84
2023-05-20T05:35:06.725Z,12.87
2023-05-20T05:36:41.398Z,12.89
2023-05-20T05:38:13.285Z,12.93
2023-05-20T05:39:45.151Z,12.99
2023-05-20T05:41:17.058Z,12.98
2023-05-20T05:42:48.952Z,13.01
2023-05-20T05:44:20.860Z,13.04
2023-05-20T05:45:52.902Z,13.07
2023-05-20T05:47:29.882Z,13.09
2023-05-20T05:49:01.795Z,13.11
2023-05-20T05:50:33.671Z,13.15
2023-05-20T05:52:05.829Z,13.15
2023-05-20T05:53:37.953Z,13.16
2023-05-20T05:55:11.050Z,13.19
2023-05-20T05:56:43.079Z,13.22
2023-05-20T05:58:15.038Z,13.24
2023-05-20T05:59:47.124Z,13.28
2023-05-20T06:01:19.447Z,13.29
2023-05-20T06:02:51.608Z,13.31
2023-05-20T06:04:35.915Z,13.32
2023-05-20T06:06:08.021Z,13.32
2023-05-20T06:07:40.218Z,13.33
2023-05-20T06:09:12.078Z,13.33
2023-05-20T06:10:49.273Z,13.33
2023-05-20T06:12:33.603Z,13.35
2023-05-20T06:14:05.448Z,13.36
2023-05-20T06:15:37.389Z,13.36
2023-05-20T06:17:09.284Z,13.33
2023-05-20T06:18:41.265Z,13.35
2023-05-20T06:20:13.801Z,13.35
2023-05-20T06:21:45.643Z,13.36
2023-05-20T06:23:17.534Z,13.38
2023-05-20T06:25:02.665Z,13.42
2023-05-20T06:26:35.823Z,13.44
2023-05-20T06:28:08.540Z,13.47
2023-05-20T06:29:43.093Z,13.50
2023-05-20T06:31:15.954Z,13.55
2023-05-20T06:32:48.489Z,13.60
2023-05-20T06:34:20.992Z,13.71
2023-05-20T06:35:53.692Z,13.80
2023-05-20T06:37:28.501Z,13.87
2023-05-20T06:39:00.640Z,13.98
2023-05-20T06:40:32.528Z,14.05
2023-05-20T06:42:04.656Z,14.17
2023-05-20T06:43:40.942Z,14.24
2023-05-20T06:45:35.422Z,14.35
2023-05-20T06:47:24.542Z,14.45
2023-05-20T06:48:57.384Z,14.52
2023-05-20T06:50:29.454Z,14.60
2023-05-20T06:52:01.333Z,14.69
2023-05-20T06:53:34.046Z,14.76
2023-05-20T06:55:06.422Z,14.80
2023-05-20T06:56:39.908Z,14.85
2023-05-20T06:58:12.017Z,14.90
2023-05-20T06:59:49.973Z,14.96
2023-05-20T07:01:26.095Z,15.03
2023-05-20T07:02:58.194Z,15.10
2023-05-20T07:04:30.358Z,15.14
2023-05-20T07:06:02.941Z,15.18
2023-05-20T07:07:35.017Z,15.22
2023-05-20T07:09:07.298Z,15.29
2023-05-20T07:10:39.236Z,15.34
2023-05-20T07:12:11.526Z,15.38
2023-05-20T07:13:43.396Z,15.41
2023-05-20T07:15:15.327Z,15.44
2023-05-20T07:16:48.487Z,15.47
2023-05-20T07:18:21.771Z,15.52
2023-05-20T07:19:57.997Z,15.58
2023-05-20T07:21:29.979Z,15.63
2023-05-20T07:23:10.625Z,15.61
2023-05-20T07:24:47.091Z,15.62
2023-05-20T07:26:18.988Z,15.63
2023-05-20T07:27:50.911Z,15.64
2023-05-20T07:29:22.807Z,15.68
2023-05-20T07:30:56.226Z,15.73
2023-05-20T07:32:33.317Z,15.77
2023-05-20T07:34:05.320Z,15.81
2023-05-20T07:35:37.338Z,15.83
2023-05-20T07:37:10.285Z,15.85
2023-05-20T07:38:53.226Z,15.88
2023-05-20T07:40:37.015Z,15.94
2023-05-20T07:42:09.074Z,15.96
2023-05-20T07:43:42.950Z,15.99
2023-05-20T07:45:14.842Z,16.04
2023-05-20T07:46:46.688Z,16.09
2023-05-20T07:48:18.654Z,16.13
2023-05-20T07:49:50.668Z,16.18
2023-05-20T07:51:22.554Z,16.23
2023-05-20T07:52:56.311Z,16.31
2023-05-20T07:54:30.878Z,16.39
2023-05-20T07:56:02.964Z,16.49
2023-05-20T07:57:35.120Z,16.56
2023-05-20T07:59:07.087Z,16.67
2023-05-20T08:00:45.282Z,16.80
2023-05-20T08:02:17.979Z,16.90
2023-05-20T08:03:50.363Z,17.02
2023-05-20T08:05:25.694Z,17.15
2023-05-20T08:06:57.626Z,17.23
2023-05-20T08:08:44.180Z,17.30
2023-05-20T08:10:23.612Z,17.34
2023-05-20T08:11:55.958Z,17.39
2023-05-20T08:13:28.070Z,17.45
2023-05-20T08:15:00.001Z,17.46
2023-05-20T08:16:32.082Z,17.50
2023-05-20T08:18:04.626Z,17.57
2023-05-20T08:19:36.641Z,17.64
2023-05-20T08:21:08.584Z,17.76
2023-05-20T08:22:41.085Z,17.89
2023-05-20T08:24:12.917Z,18.04
2023-05-20T08:25:47.066Z,18.17
2023-05-20T08:27:19.472Z,18.31
2023-05-20T08:28:51.411Z,18.46
2023-05-20T08:30:24.542Z,18.68
2023-05-20T08:31:56.434Z,18.89
2023-05-20T08:33:29.690Z,19.11
2023-05-20T08:35:05.525Z,19.31
2023-05-20T08:36:37.408Z,19.53
2023-05-20T08:38:09.745Z,19.70
2023-05-20T08:39:41.622Z,19.93
2023-05-20T08:41:13.774Z,20.15
2023-05-20T08:42:49.508Z,20.36
2023-05-20T08:44:24.674Z,20.58
2023-05-20T08:45:56.750Z,20.79
2023-05-20T08:47:31.046Z,20.98
2023-05-20T08:49:03.054Z,21.18
2023-05-20T08:50:34.940Z,21.33
2023-05-20T08:52:06.929Z,21.41
2023-05-20T08:53:39.899Z,21.52
2023-05-20T08:55:16.676Z,21.61
2023-05-20T08:56:48.543Z,21.65
2023-05-20T08:58:21.126Z,21.74
2023-05-20T08:59:53.033Z,21.82
2023-05-20T09:01:28.475Z,21.96
2023-05-20T09:03:01.237Z,22.06
2023-05-20T09:04:33.540Z,22.12
2023-05-20T09:06:08.157Z,22.16
2023-05-20T09:07:40.680Z,22.21
2023-05-20T09:09:16.042Z,22.36
2023-05-20T09:10:48.128Z,22.41
2023-05-20T09:12:21.552Z,22.50
2023-05-20T09:13:53.681Z,22.56
2023-05-20T09:15:25.505Z,22.67
2023-05-20T09:16:57.564Z,22.76
2023-05-20T09:18:30.277Z,22.83
2023-05-20T09:20:02.383Z,22.93
2023-05-20T09:21:35.757Z,22.98
2023-05-20T09:23:10.929Z,23.02
2023-05-20T09:24:43.062Z,23.05
2023-05-20T09:26:15.090Z,23.07
2023-05-20T09:27:46.938Z,23.07
2023-05-20T09:29:21.902Z,23.08
2023-05-20T09:31:00.336Z,23.07
2023-05-20T09:32:32.375Z,23.08
2023-05-20T09:34:04.855Z,23.09
2023-05-20T09:35:38.063Z,23.10
2023-05-20T09:37:10.329Z,23.12
2023-05-20T09:38:42.975Z,23.15
2023-05-20T09:40:15.794Z,23.15
2023-05-20T09:42:04.030Z,23.05
2023-05-20T09:43:36.720Z,23.01
2023-05-20T09:45:12.049Z,22.88
2023-05-20T09:46:46.136Z,22.82
2023-05-20T09:48:18.321Z,22.73
2023-05-20T09:49:50.680Z,22.66
2023-05-20T09:51:24.266Z,22.62
2023-05-20T09:52:56.414Z,22.56
2023-05-20T09:54:30.096Z,22.53
2023-05-20T09:56:02.412Z,22.50
2023-05-20T09:57:35.259Z,22.46
2023-05-20T09:59:08.068Z,22.45
2023-05-20T10:00:39.990Z,22.39
2023-05-20T10:02:12.215Z,22.35
2023-05-20T10:03:45.530Z,22.27
2023-05-20T10:05:24.338Z,22.27
2023-05-20T10:07:41.688Z,22.18
2023-05-20T10:09:32.642Z,22.20
2023-05-20T10:11:28.381Z,22.16
2023-05-20T10:13:21.941Z,22.18
2023-05-20T10:15:17.996Z,22.16
2023-05-20T10:17:13.090Z,22.14
2023-05-20T10:18:44.935Z,22.15
2023-05-20T10:20:17.010Z,22.18
2023-05-20T10:22:06.302Z,22.16
2023-05-20T10:23:38.263Z,22.22
2023-05-20T10:25:23.825Z,22.18
2023-05-20T10:26:55.882Z,22.13
2023-05-20T10:28:33.218Z,22.11
2023-05-20T10:30:16.808Z,22.11
2023-05-20T10:31:50.747Z,22.16
2023-05-20T10:33:22.965Z,22.19
2023-05-20T10:35:05.545Z,22.26
2023-05-20T10:36:38.168Z,22.35
2023-05-20T10:38:12.231Z,22.34
2023-05-20T10:39:44.613Z,22.31
2023-05-20T10:41:21.795Z,22.30
2023-05-20T10:42:53.902Z,22.32
2023-05-20T10:44:25.839Z,22.33
2023-05-20T10:45:59.559Z,22.36
2023-05-20T10:47:32.383Z,22.45
2023-05-20T10:49:05.237Z,22.50
2023-05-20T10:50:38.919Z,22.56
2023-05-20T10:52:11.600Z,22.63
2023-05-20T10:53:46.965Z,22.63
2023-05-20T10:55:19.779Z,22.70
2023-05-20T10:56:53.870Z,22.73
2023-05-20T10:58:25.885Z,22.77
2023-05-20T10:59:58.233Z,22.83
2023-05-20T11:01:30.346Z,22.93
2023-05-20T11:03:02.852Z,23.01
2023-05-20T11:04:35.281Z,23.03
2023-05-20T11:06:16.049Z,23.03
2023-05-20T11:07:49.405Z,23.09
2023-05-20T11:09:21.407Z,23.06
2023-05-20T11:10:53.280Z,23.05
2023-05-20T11:12:27.673Z,23.04
2023-05-20T11:14:00.870Z,23.06
2023-05-20T11:15:33.727Z,23.11
2023-05-20T11:17:08.074Z,23.15
2023-05-20T11:18:40.074Z,23.20
2023-05-20T11:20:14.836Z,23.27
2023-05-20T11:21:47.657Z,23.37
2023-05-20T11:23:19.528Z,23.40
2023-05-20T11:24:51.454Z,23.45
2023-05-20T11:26:23.553Z,23.48
2023-05-20T11:27:55.464Z,23.55
2023-05-20T11:29:29.281Z,23.62
2023-05-20T11:31:01.438Z,23.64
2023-05-20T11:32:33.347Z,23.68
2023-05-20T11:34:05.325Z,23.70
2023-05-20T11:35:37.185Z,23.70
2023-05-20T11:37:10.518Z,23.72
2023-05-20T11:38:43.109Z,23.72
2023-05-20T11:40:15.432Z,23.73
2023-05-20T11:41:47.471Z,23.79
2023-05-20T11:43:20.458Z,23.79
2023-05-20T11:44:52.304Z,23.81
2023-05-20T11:46:24.492Z,23.78
2023-05-20T11:48:06.224Z,23.76
2023-05-20T11:49:41.315Z,23.79
2023-05-20T11:51:13.575Z,23.81
2023-05-20T11:52:45.435Z,23.81
2023-05-20T11:54:17.267Z,23.79
2023-05-20T11:55:51.413Z,23.79
2023-05-20T11:57:23.626Z,23.78
2023-05-20T11:59:00.557Z,23.83
2023-05-20T12:00:49.346Z,23.84
2023-05-20T12:02:22.332Z,23.86
2023-05-20T12:03:54.588Z,23.89
2023-05-20T12:05:26.492Z,23.93
2023-05-20T12:06:58.349Z,23.97
2023-05-20T12:08:30.402Z,24.04
2023-05-20T12:10:03.671Z,24.10
2023-05-20T12:11:37.094Z,24.15
2023-05-20T12:13:09.236Z,24.18
2023-05-20T12:14:41.129Z,24.18
2023-05-20T12:16:13.053Z,24.20
2023-05-20T12:17:50.395Z,24.18
2023-05-20T12:19:22.437Z,24.17
2023-05-20T12:20:54.469Z,24.16
2023-05-20T12:22:26.306Z,24.16
2023-05-20T12:23:59.967Z,24.15
2023-05-20T12:25:32.270Z,24.13
2023-05-20T12:27:04.364Z,24.09
2023-05-20T12:28:36.453Z,24.04
2023-05-20T12:30:10.108Z,23.98
2023-05-20T12:31:42.031Z,23.94
2023-05-20T12:33:13.906Z,23.89
2023-05-20T12:34:45.826Z,23.87
2023-05-20T12:36:17.781Z,23.84
2023-05-20T12:37:49.605Z,23.84
2023-05-20T12:39:21.498Z,23.87
2023-05-20T12:40:53.378Z,23.95
2023-05-20T12:42:25.270Z,24.00
2023-05-20T12:43:57.117Z,24.06
2023-05-20T12:45:29.031Z,24.14
2023-05-20T12:47:01.219Z,24.21
2023-05-20T12:48:33.164Z,24.27
2023-05-20T12:50:05.450Z,24.32
2023-05-20T12:51:38.040Z,24.37
2023-05-20T12:53:09.916Z,24.43
2023-05-20T12:54:41.763Z,24.48
2023-05-20T12:56:13.645Z,24.54
2023-05-20T12:57:46.623Z,24.54
2023-05-20T12:59:18.478Z,24.59
2023-05-20T13:00:50.415Z,24.54
2023-05-20T13:02:22.339Z,24.46
2023-05-20T13:03:55.650Z,24.38
2023-05-20T13:05:27.845Z,24.28
2023-05-20T13:06:59.802Z,24.20
2023-05-20T13:08:31.698Z,24.12
2023-05-20T13:10:03.982Z,24.05
2023-05-20T13:11:35.868Z,23.96
2023-05-20T13:13:07.756Z,23.85
2023-05-20T13:14:39.560Z,23.80
2023-05-20T13:16:12.185Z,23.75
2023-05-20T13:17:44.205Z,23.72
2023-05-20T13:19:16.192Z,23.75
2023-05-20T13:20:48.073Z,23.82
2023-05-20T13:22:19.934Z,23.91
2023-05-20T13:23:51.781Z,23.98
2023-05-20T13:25:23.709Z,24.03
2023-05-20T13:26:56.201Z,24.09
2023-05-20T13:28:28.400Z,24.17
2023-05-20T13:30:02.017Z,24.28
2023-05-20T13:31:34.554Z,24.44
2023-05-20T13:33:06.834Z,24.57
2023-05-20T13:34:39.188Z,24.74
2023-05-20T13:36:11.327Z,24.89
2023-05-20T13:37:43.244Z,24.98
2023-05-20T13:39:16.247Z,25.09
2023-05-20T13:40:49.777Z,25.18
2023-05-20T13:42:21.730Z,25.28
2023-05-20T13:43:53.828Z,25.37
2023-05-20T13:45:25.864Z,25.40
2023-05-20T13:46:57.767Z,25.44
2023-05-20T13:48:29.711Z,25.43
2023-05-20T13:50:03.122Z,25.27
2023-05-20T13:51:35.450Z,25.23
2023-05-20T13:53:12.562Z,25.15
2023-05-20T13:54:46.918Z,25.05
2023-05-20T13:56:18.970Z,24.99
2023-05-20T13:57:53.443Z,24.94
2023-05-20T13:59:25.295Z,24.85
2023-05-20T14:00:57.371Z,24.77
2023-05-20T14:02:29.300Z,24.71
2023-05-20T14:04:01.328Z,24.68
2023-05-20T14:05:33.762Z,24.62
2023-05-20T14:07:08.576Z,24.55
2023-05-20T14:08:41.579Z,24.48
2023-05-20T14:10:13.473Z,24.43
2023-05-20T14:11:45.370Z,24.36
2023-05-20T14:13:17.236Z,24.32
2023-05-20T14:14:49.069Z,24.28
2023-05-20T14:16:20.994Z,24.24
2023-05-20T14:17:52.972Z,24.18
2023-05-20T14:19:24.905Z,24.15
2023-05-20T14:20:56.901Z,24.11
2023-05-20T14:22:28.755Z,24.01
2023-05-20T14:24:01.542Z,23.92
2023-05-20T14:25:33.510Z,23.84
2023-05-20T14:27:05.674Z,23.79
2023-05-20T14:28:37.622Z,23.72
2023-05-20T14:30:10.010Z,23.64
2023-05-20T14:31:41.927Z,23.54
2023-05-20T14:33:13.874Z,23.47
2023-05-20T14:34:45.748Z,23.40
2023-05-20T14:36:17.771Z,23.34
2023-05-20T14:37:49.642Z,23.27
2023-05-20T14:39:21.567Z,23.19
2023-05-20T14:40:53.440Z,23.13
2023-05-20T14:42:25.357Z,23.09
2023-05-20T14:43:57.204Z,23.00
2023-05-20T14:45:29.080Z,22.93
2023-05-20T14:47:01.081Z,22.87
2023-05-20T14:48:32.966Z,22.82
2023-05-20T14:50:05.049Z,22.76
2023-05-20T14:51:36.897Z,22.70
2023-05-20T14:53:08.898Z,22.66
2023-05-20T14:54:40.767Z,22.61
2023-05-20T14:56:12.673Z,22.57
2023-05-20T14:57:44.560Z,22.53
2023-05-20T14:59:16.381Z,22.49
2023-05-20T15:00:48.335Z,22.47
2023-05-20T15:02:20.536Z,22.48
2023-05-20T15:03:52.477Z,22.49
2023-05-20T15:05:24.697Z,22.50
2023-05-20T15:06:56.706Z,22.50
2023-05-20T15:08:28.642Z,22.52
2023-05-20T15:10:00.588Z,22.52
2023-05-20T15:11:32.432Z,22.53
2023-05-20T15:13:04.347Z,22.52
2023-05-20T15:14:36.297Z,22.51
2023-05-20T15:16:08.245Z,22.50
2023-05-20T15:17:40.154Z,22.48
2023-05-20T15:19:15.300Z,22.45
2023-05-20T15:20:47.252Z,22.37
2023-05-20T15:22:19.111Z,22.38
2023-05-20T15:23:51.000Z,22.33
2023-05-20T15:25:22.888Z,22.32
2023-05-20T15:26:55.276Z,22.33
2023-05-20T15:28:27.135Z,22.35
2023-05-20T15:29:58.971Z,22.34
2023-05-20T15:31:30.968Z,22.32
2023-05-20T15:33:03.439Z,22.32
2023-05-20T15:34:35.823Z,22.28
2023-05-20T15:36:08.013Z,22.27
2023-05-20T15:37:39.854Z,22.23
2023-05-20T15:39:12.188Z,22.22
2023-05-20T15:40:44.009Z,22.20
2023-05-20T15:42:18.663Z,22.20
2023-05-20T15:43:51.427Z,22.22
2023-05-20T15:45:23.324Z,22.26
2023-05-20T15:46:55.312Z,22.31
2023-05-20T15:48:27.181Z,22.38
2023-05-20T15:49:59.367Z,22.45
2023-05-20T15:51:31.547Z,22.55
2023-05-20T15:53:06.820Z,22.63
2023-05-20T15:54:38.665Z,22.72
2023-05-20T15:56:12.616Z,22.82
2023-05-20T15:57:44.513Z,22.86
2023-05-20T15:59:16.488Z,22.88
2023-05-20T16:00:49.915Z,22.90
2023-05-20T16:02:21.852Z,22.91
2023-05-20T16:03:56.904Z,22.89
2023-05-20T16:05:29.711Z,22.87
2023-05-20T16:07:01.627Z,22.83
2023-05-20T16:08:36.110Z,22.78
2023-05-20T16:10:08.729Z,22.73
2023-05-20T16:11:40.566Z,22.70
2023-05-20T16:13:12.442Z,22.64
2023-05-20T16:14:44.939Z,22.59
2023-05-20T16:16:17.079Z,22.57
2023-05-20T16:17:48.993Z,22.52
2023-05-20T16:19:20.903Z,22.44
2023-05-20T16:20:52.810Z,22.38
2023-05-20T16:22:24.670Z,22.32
2023-05-20T16:23:56.522Z,22.27
2023-05-20T16:25:28.385Z,22.23
2023-05-20T16:27:00.256Z,22.19
2023-05-20T16:28:32.105Z,22.19
2023-05-20T16:30:07.570Z,22.18
2023-05-20T16:31:39.535Z,22.21
2023-05-20T16:33:13.402Z,22.22
2023-05-20T16:34:45.493Z,22.27
2023-05-20T16:36:17.581Z,22.28
2023-05-20T16:37:49.447Z,22.30
2023-05-20T16:39:21.304Z,22.33
2023-05-20T16:40:53.175Z,22.39
2023-05-20T16:42:25.020Z,22.45
2023-05-20T16:43:56.890Z,22.55
2023-05-20T16:45:28.804Z,22.65
2023-05-20T16:47:00.924Z,22.72
2023-05-20T16:48:33.321Z,22.81
2023-05-20T16:50:05.731Z,22.89
2023-05-20T16:51:37.587Z,22.94
2023-05-20T16:53:09.660Z,22.99
2023-05-20T16:54:41.544Z,23.06
2023-05-20T16:56:13.391Z,23.11
2023-05-20T16:57:45.535Z,23.15
2023-05-20T16:59:18.875Z,23.12
2023-05-20T17:00:50.753Z,23.08
2023-05-20T17:02:22.629Z,22.99
2023-05-20T17:03:54.888Z,22.87
2023-05-20T17:05:26.833Z,22.76
2023-05-20T17:06:58.691Z,22.61
2023-05-20T17:08:30.974Z,22.50
2023-05-20T17:10:02.847Z,22.38
2023-05-20T17:11:34.735Z,22.21
2023-05-20T17:13:06.755Z,22.07
2023-05-20T17:14:38.622Z,21.94
2023-05-20T17:16:12.250Z,21.82
2023-05-20T17:17:44.247Z,21.69
2023-05-20T17:19:16.327Z,21.54
2023-05-20T17:20:48.210Z,21.42
2023-05-20T17:22:20.054Z,21.32
2023-05-20T17:23:52.054Z,21.21
2023-05-20T17:25:23.944Z,21.11
2023-05-20T17:26:56.415Z,20.99
2023-05-20T17:28:28.247Z,20.93
2023-05-20T17:30:00.149Z,20.86
2023-05-20T17:31:32.102Z,20.77
2023-05-20T17:33:04.006Z,20.73
2023-05-20T17:34:35.965Z,20.61
2023-05-20T17:36:08.020Z,20.57
2023-05-20T17:37:40.136Z,20.49
2023-05-20T17:39:12.649Z,20.41
2023-05-20T17:40:44.531Z,20.35
2023-05-20T17:42:16.411Z,20.26
2023-05-20T17:43:48.245Z,20.17
2023-05-20T17:45:20.189Z,20.08
2023-05-20T17:46:52.069Z,20.06
2023-05-20T17:48:23.927Z,19.97
2023-05-20T17:49:56.117Z,19.93
2023-05-20T17:51:27.963Z,19.83
2023-05-20T17:52:59.817Z,19.76
2023-05-20T17:54:31.760Z,19.70
2023-05-20T17:56:03.785Z,19.63
2023-05-20T17:57:35.743Z,19.58
2023-05-20T17:59:07.632Z,19.51
2023-05-20T18:00:42.471Z,19.45
2023-05-20T18:02:14.606Z,19.37
2023-05-20T18:03:46.847Z,19.30
2023-05-20T18:05:18.848Z,19.21
2023-05-20T18:06:50.705Z,19.15
2023-05-20T18:08:23.573Z,19.08
2023-05-20T18:09:55.491Z,19.01
2023-05-20T18:11:28.774Z,18.93
2023-05-20T18:13:01.446Z,18.84
2023-05-20T18:14:33.474Z,18.78
2023-05-20T18:16:05.913Z,18.71
2023-05-20T18:17:39.526Z,18.63
2023-05-20T18:19:12.315Z,18.56
2023-05-20T18:20:44.247Z,18.50
2023-05-20T18:22:16.389Z,18.44
2023-05-20T18:23:48.877Z,18.39
2023-05-20T18:25:20.784Z,18.31
2023-05-20T18:26:52.632Z,18.26
2023-05-20T18:28:24.493Z,18.19
2023-05-20T18:29:56.364Z,18.14
2023-05-20T18:31:28.253Z,18.07
2023-05-20T18:33:00.201Z,17.98
2023-05-20T18:34:33.360Z,17.92
2023-05-20T18:36:06.252Z,17.87
2023-05-20T18:37:38.170Z,17.80
2023-05-20T18:39:10.791Z,17.77
2023-05-20T18:40:42.618Z,17.69
2023-05-20T18:42:14.629Z,17.63
2023-05-20T18:43:46.462Z,17.56
2023-05-20T18:45:18.347Z,17.50
2023-05-20T18:46:50.488Z,17.44
2023-05-20T18:48:26.526Z,17.37
2023-05-20T18:49:59.253Z,17.31
2023-05-20T18:51:33.470Z,17.26
2023-05-20T18:53:05.292Z,17.20
2023-05-20T18:54:37.241Z,17.15
2023-05-20T18:56:09.285Z,17.10
2023-05-20T18:57:41.134Z,17.02
2023-05-20T18:59:13.335Z,16.97
2023-05-20T19:00:45.230Z,16.91
2023-05-20T19:02:17.503Z,16.85
2023-05-20T19:03:49.636Z,16.81
2023-05-20T19:05:21.598Z,16.73
2023-05-20T19:06:53.566Z,16.66
2023-05-20T19:08:27.506Z,16.60
2023-05-20T19:09:59.562Z,16.56
2023-05-20T19:11:31.724Z,16.49
2023-05-20T19:13:03.540Z,16.44
2023-05-20T19:14:35.337Z,16.38
2023-05-20T19:16:07.929Z,16.33
2023-05-20T19:17:39.840Z,16.28
2023-05-20T19:19:11.705Z,16.22
2023-05-20T19:20:43.674Z,16.18
2023-05-20T19:22:15.886Z,16.14
2023-05-20T19:23:48.947Z,16.10
2023-05-20T19:25:21.369Z,16.07
2023-05-20T19:26:53.236Z,16.00
2023-05-20T19:28:25.065Z,15.96
2023-05-20T19:29:56.936Z,15.93
2023-05-20T19:31:28.779Z,15.88
2023-05-20T19:33:03.030Z,15.85
2023-05-20T19:34:35.214Z,15.79
2023-05-20T19:36:07.623Z,15.76
2023-05-20T19:37:39.479Z,15.72
2023-05-20T19:39:11.547Z,15.67
2023-05-20T19:40:47.927Z,15.61
2023-05-20T19:42:19.754Z,15.57
2023-05-20T19:43:51.934Z,15.52
2023-05-20T19:45:23.917Z,15.48
2023-05-20T19:46:56.309Z,15.43
2023-05-20T19:48:28.164Z,15.38
2023-05-20T19:50:00.150Z,15.34
2023-05-20T19:51:32.413Z,15.31
2023-05-20T19:53:06.637Z,15.27
2023-05-20T19:54:39.445Z,15.23
2023-05-20T19:56:12.737Z,15.20
2023-05-20T19:57:46.825Z,15.16
2023-05-20T19:59:18.698Z,15.12